sensor_id;sensor_type;location;lat;lon;timestamp;pressure;altitude;pressure_sealevel;temperature;humidity
64200;BME280;50516;52.272;5.136;2023-05-18T00:01:36;102919.66;;;9.34;61.18
64200;BME280;50516;52.272;5.136;2023-05-18T00:04:04;102919.66;;;9.34;61.50
64200;BME280;50516;52.272;5.136;2023-05-18T00:06:30;102934.63;;;9.31;61.54
64200;BME280;50516;52.272;5.136;2023-05-18T00:08:55;102923.66;;;9.31;61.62
64200;BME280;50516;52.272;5.136;2023-05-18T00:11:20;102921.34;;;9.21;62.18
64200;BME280;50516;52.272;5.136;2023-05-18T00:13:46;102924.91;;;9.22;62.13
64200;BME280;50516;52.272;5.136;2023-05-18T00:16:11;102934.44;;;9.19;62.11
64200;BME280;50516;52.272;5.136;2023-05-18T00:18:37;102924.94;;;9.15;62.26
64200;BME280;50516;52.272;5.136;2023-05-18T00:21:03;102931.25;;;9.22;62.39
64200;BME280;50516;52.272;5.136;2023-05-18T00:23:29;102923.47;;;9.19;62.57
64200;BME280;50516;52.272;5.136;2023-05-18T00:25:56;102931.25;;;9.16;62.50
64200;BME280;50516;52.272;5.136;2023-05-18T00:28:21;102922.41;;;9.13;62.82
64200;BME280;50516;52.272;5.136;2023-05-18T00:30:46;102934.84;;;9.16;62.92
64200;BME280;50516;52.272;5.136;2023-05-18T00:33:12;102920.06;;;9.17;62.69
64200;BME280;50516;52.272;5.136;2023-05-18T00:35:37;102926.00;;;9.14;62.95
64200;BME280;50516;52.272;5.136;2023-05-18T00:38:03;102925.56;;;9.10;62.92
64200;BME280;50516;52.272;5.136;2023-05-18T00:40:28;102929.13;;;9.04;63.17
64200;BME280;50516;52.272;5.136;2023-05-18T00:42:54;102925.75;;;9.09;63.23
64200;BME280;50516;52.272;5.136;2023-05-18T00:45:19;102931.25;;;9.09;63.45
64200;BME280;50516;52.272;5.136;2023-05-18T00:47:45;102934.41;;;9.06;63.60
64200;BME280;50516;52.272;5.136;2023-05-18T00:50:11;102932.75;;;9.05;64.06
64200;BME280;50516;52.272;5.136;2023-05-18T00:52:37;102930.41;;;9.02;64.05
64200;BME280;50516;52.272;5.136;2023-05-18T00:55:03;102930.63;;;9.07;64.12
64200;BME280;50516;52.272;5.136;2023-05-18T00:57:30;102934.41;;;8.99;64.43
64200;BME280;50516;52.272;5.136;2023-05-18T00:59:56;102930.00;;;8.98;64.73
64200;BME280;50516;52.272;5.136;2023-05-18T01:02:21;102926.81;;;8.94;64.75
64200;BME280;50516;52.272;5.136;2023-05-18T01:04:47;102924.53;;;8.98;64.79
64200;BME280;50516;52.272;5.136;2023-05-18T01:07:13;102924.94;;;8.95;64.74
64200;BME280;50516;52.272;5.136;2023-05-18T01:09:40;102928.09;;;8.92;65.03
64200;BME280;50516;52.272;5.136;2023-05-18T01:12:34;102934.41;;;8.99;65.34
64200;BME280;50516;52.272;5.136;2023-05-18T01:15:19;102935.47;;;8.98;65.05
64200;BME280;50516;52.272;5.136;2023-05-18T01:17:56;102937.16;;;8.92;65.45
64200;BME280;50516;52.272;5.136;2023-05-18T01:21:06;102934.00;;;8.95;65.51
64200;BME280;50516;52.272;5.136;2023-05-18T01:24:05;102935.47;;;8.91;65.85
64200;BME280;50516;52.272;5.136;2023-05-18T01:26:40;102934.81;;;8.89;66.02
64200;BME280;50516;52.272;5.136;2023-05-18T01:29:12;102935.25;;;8.86;66.55
64200;BME280;50516;52.272;5.136;2023-05-18T01:31:38;102937.34;;;8.84;66.76
64200;BME280;50516;52.272;5.136;2023-05-18T01:34:04;102936.94;;;8.81;67.00
64200;BME280;50516;52.272;5.136;2023-05-18T01:36:29;102936.09;;;8.80;67.09
64200;BME280;50516;52.272;5.136;2023-05-18T01:38:56;102929.56;;;8.81;67.04
64200;BME280;50516;52.272;5.136;2023-05-18T01:41:29;102937.78;;;8.81;67.29
64200;BME280;50516;52.272;5.136;2023-05-18T01:44:10;102931.66;;;8.79;67.48
64200;BME280;50516;52.272;5.136;2023-05-18T01:47:19;102929.13;;;8.77;67.59
64200;BME280;50516;52.272;5.136;2023-05-18T01:49:50;102942.19;;;8.69;67.78
64200;BME280;50516;52.272;5.136;2023-05-18T01:52:22;102944.94;;;8.69;67.94
64200;BME280;50516;52.272;5.136;2023-05-18T01:54:51;102943.66;;;8.71;67.53
64200;BME280;50516;52.272;5.136;2023-05-18T01:57:19;102946.59;;;8.76;67.58
64200;BME280;50516;52.272;5.136;2023-05-18T01:59:47;102947.22;;;8.72;67.58
64200;BME280;50516;52.272;5.136;2023-05-18T02:02:14;102935.03;;;8.74;68.02
64200;BME280;50516;52.272;5.136;2023-05-18T02:04:39;102932.91;;;8.63;68.53
64200;BME280;50516;52.272;5.136;2023-05-18T02:07:04;102941.31;;;8.62;68.80
64200;BME280;50516;52.272;5.136;2023-05-18T02:09:30;102943.22;;;8.61;69.14
64200;BME280;50516;52.272;5.136;2023-05-18T02:11:55;102940.28;;;8.63;68.81
64200;BME280;50516;52.272;5.136;2023-05-18T02:14:20;102941.53;;;8.60;69.19
64200;BME280;50516;52.272;5.136;2023-05-18T02:16:46;102937.97;;;8.59;69.31
64200;BME280;50516;52.272;5.136;2023-05-18T02:19:18;102943.84;;;8.56;69.31
64200;BME280;50516;52.272;5.136;2023-05-18T02:21:43;102941.53;;;8.60;69.36
64200;BME280;50516;52.272;5.136;2023-05-18T02:24:09;102944.69;;;8.57;69.18
64200;BME280;50516;52.272;5.136;2023-05-18T02:26:35;102942.56;;;8.52;69.79
64200;BME280;50516;52.272;5.136;2023-05-18T02:29:02;102931.97;;;8.43;70.07
64200;BME280;50516;52.272;5.136;2023-05-18T02:31:27;102940.88;;;8.45;70.13
64200;BME280;50516;52.272;5.136;2023-05-18T02:33:53;102935.63;;;8.43;69.93
64200;BME280;50516;52.272;5.136;2023-05-18T02:36:19;102935.78;;;8.41;69.81
64200;BME280;50516;52.272;5.136;2023-05-18T02:38:46;102943.81;;;8.43;69.78
64200;BME280;50516;52.272;5.136;2023-05-18T02:41:13;102934.09;;;8.40;69.68
64200;BME280;50516;52.272;5.136;2023-05-18T02:43:38;102937.47;;;8.43;69.95
64200;BME280;50516;52.272;5.136;2023-05-18T02:46:04;102932.88;;;8.43;69.83
64200;BME280;50516;52.272;5.136;2023-05-18T02:48:30;102939.34;;;8.42;69.30
64200;BME280;50516;52.272;5.136;2023-05-18T02:50:55;102932.19;;;8.41;69.27
64200;BME280;50516;52.272;5.136;2023-05-18T02:53:21;102931.56;;;8.39;69.58
64200;BME280;50516;52.272;5.136;2023-05-18T02:55:47;102934.09;;;8.40;69.76
64200;BME280;50516;52.272;5.136;2023-05-18T02:58:13;102927.97;;;8.38;69.25
64200;BME280;50516;52.272;5.136;2023-05-18T03:00:39;102936.63;;;8.42;69.09
64200;BME280;50516;52.272;5.136;2023-05-18T03:03:04;102937.28;;;8.44;69.20
64200;BME280;50516;52.272;5.136;2023-05-18T03:05:29;102941.31;;;8.48;68.71
64200;BME280;50516;52.272;5.136;2023-05-18T03:07:55;102938.06;;;8.38;68.93
64200;BME280;50516;52.272;5.136;2023-05-18T03:10:21;102927.78;;;8.40;68.97
64200;BME280;50516;52.272;5.136;2023-05-18T03:12:47;102933.88;;;8.35;69.11
64200;BME280;50516;52.272;5.136;2023-05-18T03:15:13;102937.44;;;8.36;69.18
64200;BME280;50516;52.272;5.136;2023-05-18T03:17:40;102942.50;;;8.32;69.13
64200;BME280;50516;52.272;5.136;2023-05-18T03:20:07;102935.31;;;8.31;69.57
64200;BME280;50516;52.272;5.136;2023-05-18T03:22:32;102928.59;;;8.27;69.21
64200;BME280;50516;52.272;5.136;2023-05-18T03:24:58;102931.09;;;8.22;69.37
64200;BME280;50516;52.272;5.136;2023-05-18T03:27:23;102928.34;;;8.22;69.85
64200;BME280;50516;52.272;5.136;2023-05-18T03:29:50;102927.91;;;8.18;70.28
64200;BME280;50516;52.272;5.136;2023-05-18T03:32:20;102933.59;;;8.17;70.13
64200;BME280;50516;52.272;5.136;2023-05-18T03:34:45;102932.94;;;8.15;70.29
64200;BME280;50516;52.272;5.136;2023-05-18T03:37:13;102934.00;;;8.14;70.48
64200;BME280;50516;52.272;5.136;2023-05-18T03:39:39;102935.47;;;8.16;70.26
64200;BME280;50516;52.272;5.136;2023-05-18T03:42:05;102936.09;;;8.12;70.08
64200;BME280;50516;52.272;5.136;2023-05-18T03:44:30;102937.38;;;8.09;70.62
64200;BME280;50516;52.272;5.136;2023-05-18T03:46:56;102929.75;;;8.04;70.77
64200;BME280;50516;52.272;5.136;2023-05-18T03:49:21;102934.56;;;8.02;70.79
64200;BME280;50516;52.272;5.136;2023-05-18T03:51:46;102935.44;;;8.03;70.70
64200;BME280;50516;52.272;5.136;2023-05-18T03:54:12;102939.84;;;8.04;70.63
64200;BME280;50516;52.272;5.136;2023-05-18T03:56:37;102948.91;;;8.04;70.74
64200;BME280;50516;52.272;5.136;2023-05-18T03:59:03;102940.28;;;8.01;70.92
64200;BME280;50516;52.272;5.136;2023-05-18T04:01:30;102946.97;;;7.98;70.83
64200;BME280;50516;52.272;5.136;2023-05-18T04:03:57;102941.31;;;8.00;71.08
64200;BME280;50516;52.272;5.136;2023-05-18T04:06:22;102948.25;;;8.02;71.35
64200;BME280;50516;52.272;5.136;2023-05-18T04:08:48;102954.19;;;8.06;70.95
64200;BME280;50516;52.272;5.136;2023-05-18T04:11:14;102955.44;;;8.03;71.14
64200;BME280;50516;52.272;5.136;2023-05-18T04:13:39;102954.38;;;8.04;71.12
64200;BME280;50516;52.272;5.136;2023-05-18T04:16:06;102953.72;;;8.02;71.27
64200;BME280;50516;52.272;5.136;2023-05-18T04:18:31;102956.72;;;8.08;71.35
64200;BME280;50516;52.272;5.136;2023-05-18T04:20:57;102957.16;;;8.11;71.24
64200;BME280;50516;52.272;5.136;2023-05-18T04:23:22;102961.41;;;8.20;70.84
64200;BME280;50516;52.272;5.136;2023-05-18T04:25:47;102961.03;;;8.30;70.93
64200;BME280;50516;52.272;5.136;2023-05-18T04:28:13;102963.16;;;8.35;70.69
64200;BME280;50516;52.272;5.136;2023-05-18T04:30:39;102961.88;;;8.37;70.52
64200;BME280;50516;52.272;5.136;2023-05-18T04:33:04;102962.28;;;8.41;70.76
64200;BME280;50516;52.272;5.136;2023-05-18T04:35:31;102960.63;;;8.40;70.68
64200;BME280;50516;52.272;5.136;2023-05-18T04:37:56;102965.72;;;8.43;70.90
64200;BME280;50516;52.272;5.136;2023-05-18T04:40:22;102968.06;;;8.46;70.91
64200;BME280;50516;52.272;5.136;2023-05-18T04:42:49;102961.94;;;8.51;71.00
64200;BME280;50516;52.272;5.136;2023-05-18T04:45:19;102969.53;;;8.55;70.75
64200;BME280;50516;52.272;5.136;2023-05-18T04:47:45;102969.13;;;8.58;70.69
64200;BME280;50516;52.272;5.136;2023-05-18T04:50:15;102971.47;;;8.75;70.55
64200;BME280;50516;52.272;5.136;2023-05-18T04:52:44;102977.19;;;8.80;69.99
64200;BME280;50516;52.272;5.136;2023-05-18T04:55:14;102975.31;;;9.01;69.29
64200;BME280;50516;52.272;5.136;2023-05-18T04:57:39;102970.69;;;9.14;69.25
64200;BME280;50516;52.272;5.136;2023-05-18T05:00:05;102967.50;;;9.31;68.30
64200;BME280;50516;52.272;5.136;2023-05-18T05:02:34;102982.69;;;9.40;67.49
64200;BME280;50516;52.272;5.136;2023-05-18T05:04:59;102986.28;;;9.41;67.83
64200;BME280;50516;52.272;5.136;2023-05-18T05:07:24;102982.72;;;9.34;66.93
64200;BME280;50516;52.272;5.136;2023-05-18T05:09:50;102978.69;;;9.36;67.46
64200;BME280;50516;52.272;5.136;2023-05-18T05:12:15;102974.25;;;9.42;67.18
64200;BME280;50516;52.272;5.136;2023-05-18T05:14:40;102972.34;;;9.49;66.57
64200;BME280;50516;52.272;5.136;2023-05-18T05:17:06;102976.78;;;9.57;66.44
64200;BME280;50516;52.272;5.136;2023-05-18T05:19:31;102980.13;;;9.65;65.77
64200;BME280;50516;52.272;5.136;2023-05-18T05:21:56;102980.31;;;9.84;65.10
64200;BME280;50516;52.272;5.136;2023-05-18T05:24:21;102981.28;;;10.10;64.72
64200;BME280;50516;52.272;5.136;2023-05-18T05:26:47;102982.66;;;10.39;63.33
64200;BME280;50516;52.272;5.136;2023-05-18T05:29:12;102979.88;;;10.46;63.43
64200;BME280;50516;52.272;5.136;2023-05-18T05:31:37;102973.97;;;10.49;63.06
64200;BME280;50516;52.272;5.136;2023-05-18T05:34:03;102980.28;;;10.49;62.93
64200;BME280;50516;52.272;5.136;2023-05-18T05:36:28;102981.59;;;10.47;63.09
64200;BME280;50516;52.272;5.136;2023-05-18T05:38:53;102983.53;;;10.71;61.95
64200;BME280;50516;52.272;5.136;2023-05-18T05:41:19;102984.53;;;10.84;61.33
64200;BME280;50516;52.272;5.136;2023-05-18T05:43:44;102974.06;;;10.99;61.20
64200;BME280;50516;52.272;5.136;2023-05-18T05:46:09;102974.00;;;11.06;60.64
64200;BME280;50516;52.272;5.136;2023-05-18T05:48:35;102979.00;;;11.15;59.99
64200;BME280;50516;52.272;5.136;2023-05-18T05:51:00;102990.81;;;11.23;59.53
64200;BME280;50516;52.272;5.136;2023-05-18T05:53:25;102987.97;;;11.55;59.14
64200;BME280;50516;52.272;5.136;2023-05-18T05:55:50;102989.16;;;11.84;58.31
64200;BME280;50516;52.272;5.136;2023-05-18T05:58:16;102999.00;;;11.98;57.46
64200;BME280;50516;52.272;5.136;2023-05-18T06:00:42;102997.22;;;12.04;56.15
64200;BME280;50516;52.272;5.136;2023-05-18T06:03:07;102994.69;;;12.02;55.78
64200;BME280;50516;52.272;5.136;2023-05-18T06:05:33;102996.53;;;12.09;56.13
64200;BME280;50516;52.272;5.136;2023-05-18T06:07:58;102989.94;;;12.47;55.63
64200;BME280;50516;52.272;5.136;2023-05-18T06:10:24;103003.03;;;12.33;54.23
64200;BME280;50516;52.272;5.136;2023-05-18T06:12:49;102990.16;;;12.27;54.53
64200;BME280;50516;52.272;5.136;2023-05-18T06:15:15;102994.81;;;12.75;54.18
64200;BME280;50516;52.272;5.136;2023-05-18T06:17:40;102998.00;;;12.90;53.21
64200;BME280;50516;52.272;5.136;2023-05-18T06:20:08;103011.78;;;12.90;51.97
64200;BME280;50516;52.272;5.136;2023-05-18T06:22:34;103008.09;;;12.66;52.12
64200;BME280;50516;52.272;5.136;2023-05-18T06:25:00;103007.94;;;12.91;51.88
64200;BME280;50516;52.272;5.136;2023-05-18T06:27:26;103005.72;;;13.24;50.92
64200;BME280;50516;52.272;5.136;2023-05-18T06:29:51;103009.53;;;13.11;50.99
64200;BME280;50516;52.272;5.136;2023-05-18T06:32:17;103011.63;;;13.27;50.70
64200;BME280;50516;52.272;5.136;2023-05-18T06:34:42;103010.88;;;13.20;50.82
64200;BME280;50516;52.272;5.136;2023-05-18T06:37:10;103017.78;;;13.41;50.51
64200;BME280;50516;52.272;5.136;2023-05-18T06:39:35;103019.94;;;13.39;49.46
64200;BME280;50516;52.272;5.136;2023-05-18T06:42:01;103022.34;;;13.36;50.08
64200;BME280;50516;52.272;5.136;2023-05-18T06:44:26;103020.06;;;13.32;49.12
64200;BME280;50516;52.272;5.136;2023-05-18T06:46:51;103024.69;;;13.20;50.19
64200;BME280;50516;52.272;5.136;2023-05-18T06:49:17;103019.97;;;12.48;50.15
64200;BME280;50516;52.272;5.136;2023-05-18T06:51:43;103033.63;;;12.06;50.91
64200;BME280;50516;52.272;5.136;2023-05-18T06:54:09;103020.31;;;12.03;50.90
64200;BME280;50516;52.272;5.136;2023-05-18T06:56:35;103016.84;;;11.89;51.01
64200;BME280;50516;52.272;5.136;2023-05-18T06:59:00;103020.84;;;11.93;51.80
64200;BME280;50516;52.272;5.136;2023-05-18T07:01:25;103025.69;;;12.16;51.37
64200;BME280;50516;52.272;5.136;2023-05-18T07:03:50;103023.69;;;12.23;50.91
64200;BME280;50516;52.272;5.136;2023-05-18T07:06:16;103024.59;;;12.17;51.65
64200;BME280;50516;52.272;5.136;2023-05-18T07:08:42;103025.50;;;11.93;51.49
64200;BME280;50516;52.272;5.136;2023-05-18T07:11:08;103020.94;;;12.05;51.99
64200;BME280;50516;52.272;5.136;2023-05-18T07:13:34;103025.38;;;12.06;51.55
64200;BME280;50516;52.272;5.136;2023-05-18T07:15:59;103032.41;;;12.02;52.00
64200;BME280;50516;52.272;5.136;2023-05-18T07:18:24;103031.50;;;12.08;51.21
64200;BME280;50516;52.272;5.136;2023-05-18T07:20:50;103031.72;;;12.25;51.83
64200;BME280;50516;52.272;5.136;2023-05-18T07:23:16;103036.41;;;12.24;51.48
64200;BME280;50516;52.272;5.136;2023-05-18T07:25:41;103038.38;;;12.36;51.17
64200;BME280;50516;52.272;5.136;2023-05-18T07:28:07;103036.69;;;12.35;51.16
64200;BME280;50516;52.272;5.136;2023-05-18T07:30:32;103043.41;;;12.57;51.03
64200;BME280;50516;52.272;5.136;2023-05-18T07:32:58;103032.81;;;12.73;50.88
64200;BME280;50516;52.272;5.136;2023-05-18T07:35:23;103047.22;;;12.87;49.80
64200;BME280;50516;52.272;5.136;2023-05-18T07:37:51;103041.59;;;12.82;49.96
64200;BME280;50516;52.272;5.136;2023-05-18T07:40:18;103042.81;;;12.86;49.81
64200;BME280;50516;52.272;5.136;2023-05-18T07:42:43;103048.09;;;12.87;49.46
64200;BME280;50516;52.272;5.136;2023-05-18T07:45:09;103039.28;;;13.09;49.50
64200;BME280;50516;52.272;5.136;2023-05-18T07:47:35;103047.56;;;13.51;48.68
64200;BME280;50516;52.272;5.136;2023-05-18T07:50:00;103047.31;;;13.41;48.79
64200;BME280;50516;52.272;5.136;2023-05-18T07:52:26;103043.38;;;13.60;48.35
64200;BME280;50516;52.272;5.136;2023-05-18T07:54:54;103054.38;;;13.37;48.64
64200;BME280;50516;52.272;5.136;2023-05-18T07:57:23;103047.31;;;13.41;48.32
64200;BME280;50516;52.272;5.136;2023-05-18T07:59:49;103052.94;;;13.46;47.97
64200;BME280;50516;52.272;5.136;2023-05-18T08:02:15;103054.72;;;13.40;48.42
64200;BME280;50516;52.272;5.136;2023-05-18T08:04:44;103058.91;;;13.31;48.43
64200;BME280;50516;52.272;5.136;2023-05-18T08:07:10;103050.31;;;13.63;48.39
64200;BME280;50516;52.272;5.136;2023-05-18T08:09:36;103052.47;;;13.96;47.90
64200;BME280;50516;52.272;5.136;2023-05-18T08:12:02;103055.97;;;13.92;47.70
64200;BME280;50516;52.272;5.136;2023-05-18T08:14:27;103057.41;;;13.59;48.45
64200;BME280;50516;52.272;5.136;2023-05-18T08:16:53;103059.81;;;13.55;48.58
64200;BME280;50516;52.272;5.136;2023-05-18T08:19:18;103048.06;;;13.72;46.93
64200;BME280;50516;52.272;5.136;2023-05-18T08:21:43;103044.78;;;13.51;47.12
64200;BME280;50516;52.272;5.136;2023-05-18T08:24:10;103037.84;;;13.84;47.10
64200;BME280;50516;52.272;5.136;2023-05-18T08:26:35;103044.91;;;13.92;47.30
64200;BME280;50516;52.272;5.136;2023-05-18T08:29:01;103041.66;;;13.47;47.55
64200;BME280;50516;52.272;5.136;2023-05-18T08:31:33;103039.28;;;13.51;47.89
64200;BME280;50516;52.272;5.136;2023-05-18T08:33:58;103040.59;;;13.48;47.84
64200;BME280;50516;52.272;5.136;2023-05-18T08:36:24;103041.78;;;13.52;47.85
64200;BME280;50516;52.272;5.136;2023-05-18T08:38:49;103046.97;;;13.96;47.28
64200;BME280;50516;52.272;5.136;2023-05-18T08:44:14;103028.94;;;13.82;47.51
64200;BME280;50516;52.272;5.136;2023-05-18T08:46:41;103032.28;;;14.07;47.27
64200;BME280;50516;52.272;5.136;2023-05-18T08:49:08;103042.38;;;13.43;47.18
64200;BME280;50516;52.272;5.136;2023-05-18T08:51:35;103040.34;;;13.38;47.45
64200;BME280;50516;52.272;5.136;2023-05-18T08:54:02;103046.00;;;13.55;46.55
64200;BME280;50516;52.272;5.136;2023-05-18T08:56:31;103044.06;;;13.44;47.36
64200;BME280;50516;52.272;5.136;2023-05-18T08:58:58;103049.34;;;13.57;46.87
64200;BME280;50516;52.272;5.136;2023-05-18T09:01:24;103037.84;;;13.96;46.18
64200;BME280;50516;52.272;5.136;2023-05-18T09:03:53;103031.41;;;14.31;45.73
64200;BME280;50516;52.272;5.136;2023-05-18T09:06:19;103039.03;;;14.12;45.65
64200;BME280;50516;52.272;5.136;2023-05-18T09:08:45;103034.94;;;14.02;45.76
64200;BME280;50516;52.272;5.136;2023-05-18T09:11:12;103024.09;;;14.24;45.11
64200;BME280;50516;52.272;5.136;2023-05-18T09:13:37;103020.38;;;14.19;45.06
64200;BME280;50516;52.272;5.136;2023-05-18T09:16:03;103017.66;;;14.07;45.56
64200;BME280;50516;52.272;5.136;2023-05-18T09:18:28;103014.13;;;14.23;45.48
64200;BME280;50516;52.272;5.136;2023-05-18T09:20:54;103005.09;;;14.69;44.97
64200;BME280;50516;52.272;5.136;2023-05-18T09:23:19;103007.81;;;14.52;44.73
64200;BME280;50516;52.272;5.136;2023-05-18T09:25:46;103007.44;;;14.60;44.39
64200;BME280;50516;52.272;5.136;2023-05-18T09:28:25;103000.91;;;14.66;44.34
64200;BME280;50516;52.272;5.136;2023-05-18T09:30:51;102993.97;;;14.64;44.82
64200;BME280;50516;52.272;5.136;2023-05-18T09:33:20;102997.19;;;14.89;44.40
64200;BME280;50516;52.272;5.136;2023-05-18T09:35:46;102994.38;;;15.18;43.84
64200;BME280;50516;52.272;5.136;2023-05-18T09:38:15;102993.28;;;15.02;44.03
64200;BME280;50516;52.272;5.136;2023-05-18T09:40:47;102997.41;;;14.71;44.31
64200;BME280;50516;52.272;5.136;2023-05-18T09:43:13;102989.06;;;15.00;43.92
64200;BME280;50516;52.272;5.136;2023-05-18T09:45:45;102994.09;;;14.57;44.82
64200;BME280;50516;52.272;5.136;2023-05-18T09:48:12;102984.91;;;14.97;44.36
64200;BME280;50516;52.272;5.136;2023-05-18T09:50:37;103001.66;;;15.41;42.92
64200;BME280;50516;52.272;5.136;2023-05-18T09:53:07;102986.63;;;15.54;42.84
64200;BME280;50516;52.272;5.136;2023-05-18T09:55:36;102996.72;;;15.26;43.14
64200;BME280;50516;52.272;5.136;2023-05-18T09:58:02;102996.47;;;14.94;43.76
64200;BME280;50516;52.272;5.136;2023-05-18T10:00:28;102997.47;;;15.39;42.79
64200;BME280;50516;52.272;5.136;2023-05-18T10:02:54;102990.91;;;15.45;42.48
64200;BME280;50516;52.272;5.136;2023-05-18T10:05:22;102995.19;;;15.52;42.28
64200;BME280;50516;52.272;5.136;2023-05-18T10:07:48;102987.31;;;15.27;41.86
64200;BME280;50516;52.272;5.136;2023-05-18T10:10:18;102988.31;;;15.55;42.26
64200;BME280;50516;52.272;5.136;2023-05-18T10:12:44;102989.19;;;15.95;41.77
64200;BME280;50516;52.272;5.136;2023-05-18T10:15:14;102986.91;;;15.19;43.01
64200;BME280;50516;52.272;5.136;2023-05-18T10:17:41;102989.41;;;15.37;42.40
64200;BME280;50516;52.272;5.136;2023-05-18T10:20:08;102984.97;;;15.19;42.14
64200;BME280;50516;52.272;5.136;2023-05-18T10:22:34;102979.94;;;15.16;42.51
64200;BME280;50516;52.272;5.136;2023-05-18T10:25:02;102986.88;;;15.02;41.91
64200;BME280;50516;52.272;5.136;2023-05-18T10:27:28;102968.59;;;15.51;42.37
64200;BME280;50516;52.272;5.136;2023-05-18T10:29:57;102966.13;;;15.89;42.04
64200;BME280;50516;52.272;5.136;2023-05-18T10:32:24;102973.09;;;15.75;42.19
64200;BME280;50516;52.272;5.136;2023-05-18T10:34:51;102973.22;;;16.02;41.50
64200;BME280;50516;52.272;5.136;2023-05-18T10:37:21;102972.88;;;16.20;41.49
64200;BME280;50516;52.272;5.136;2023-05-18T10:39:50;102973.59;;;16.33;41.03
64200;BME280;50516;52.272;5.136;2023-05-18T10:42:16;102968.56;;;16.30;40.56
64200;BME280;50516;52.272;5.136;2023-05-18T10:44:43;102966.44;;;15.54;41.54
64200;BME280;50516;52.272;5.136;2023-05-18T10:47:10;102970.56;;;15.90;41.36
64200;BME280;50516;52.272;5.136;2023-05-18T10:49:36;102981.19;;;16.20;40.92
64200;BME280;50516;52.272;5.136;2023-05-18T10:52:02;102960.69;;;15.77;41.47
64200;BME280;50516;52.272;5.136;2023-05-18T10:54:28;102964.31;;;16.00;41.54
64200;BME280;50516;52.272;5.136;2023-05-18T10:56:55;102963.03;;;16.30;41.43
64200;BME280;50516;52.272;5.136;2023-05-18T10:59:20;102949.56;;;16.71;40.81
64200;BME280;50516;52.272;5.136;2023-05-18T11:01:50;102958.22;;;16.47;40.58
64200;BME280;50516;52.272;5.136;2023-05-18T11:04:25;102953.47;;;16.42;41.17
64200;BME280;50516;52.272;5.136;2023-05-18T11:06:59;102961.78;;;16.97;39.93
64200;BME280;50516;52.272;5.136;2023-05-18T11:09:27;102957.31;;;16.91;40.50
64200;BME280;50516;52.272;5.136;2023-05-18T11:11:55;102949.44;;;16.55;41.23
64200;BME280;50516;52.272;5.136;2023-05-18T11:14:28;102951.84;;;16.74;41.12
64200;BME280;50516;52.272;5.136;2023-05-18T11:17:14;102947.75;;;16.54;40.73
64200;BME280;50516;52.272;5.136;2023-05-18T11:22:43;102944.53;;;16.90;40.60
64200;BME280;50516;52.272;5.136;2023-05-18T11:28:05;102944.41;;;15.64;41.68
64200;BME280;50516;52.272;5.136;2023-05-18T11:33:09;102933.59;;;16.51;40.81
64200;BME280;50516;52.272;5.136;2023-05-18T11:38:51;102931.66;;;15.80;42.03
64200;BME280;50516;52.272;5.136;2023-05-18T11:41:31;102923.69;;;15.66;41.38
64200;BME280;50516;52.272;5.136;2023-05-18T11:46:31;102931.00;;;15.56;41.00
64200;BME280;50516;52.272;5.136;2023-05-18T11:49:01;102927.72;;;15.59;40.87
64200;BME280;50516;52.272;5.136;2023-05-18T11:51:30;102928.19;;;15.73;41.59
64200;BME280;50516;52.272;5.136;2023-05-18T11:53:56;102922.44;;;16.18;41.14
64200;BME280;50516;52.272;5.136;2023-05-18T11:56:24;102927.44;;;15.77;41.82
64200;BME280;50516;52.272;5.136;2023-05-18T11:59:12;102911.31;;;15.52;42.42
64200;BME280;50516;52.272;5.136;2023-05-18T12:01:40;102918.22;;;16.16;42.04
64200;BME280;50516;52.272;5.136;2023-05-18T12:04:06;102913.19;;;15.68;42.06
64200;BME280;50516;52.272;5.136;2023-05-18T12:06:32;102907.84;;;15.62;41.47
64200;BME280;50516;52.272;5.136;2023-05-18T12:08:58;102910.00;;;15.77;42.10
64200;BME280;50516;52.272;5.136;2023-05-18T12:11:24;102902.00;;;15.80;42.18
64200;BME280;50516;52.272;5.136;2023-05-18T12:13:51;102903.41;;;16.05;41.07
64200;BME280;50516;52.272;5.136;2023-05-18T12:16:19;102899.81;;;15.82;41.08
64200;BME280;50516;52.272;5.136;2023-05-18T12:18:48;102885.59;;;15.34;41.71
64200;BME280;50516;52.272;5.136;2023-05-18T12:21:20;102889.06;;;15.47;42.18
64200;BME280;50516;52.272;5.136;2023-05-18T12:23:45;102890.16;;;15.85;41.62
64200;BME280;50516;52.272;5.136;2023-05-18T12:26:11;102886.72;;;16.00;41.47
64200;BME280;50516;52.272;5.136;2023-05-18T12:28:36;102887.41;;;15.68;41.98
64200;BME280;50516;52.272;5.136;2023-05-18T12:31:02;102892.53;;;15.98;41.57
64200;BME280;50516;52.272;5.136;2023-05-18T12:33:32;102876.03;;;15.42;41.83
64200;BME280;50516;52.272;5.136;2023-05-18T12:35:57;102882.09;;;15.22;41.82
64200;BME280;50516;52.272;5.136;2023-05-18T12:38:24;102887.19;;;15.30;41.71
64200;BME280;50516;52.272;5.136;2023-05-18T12:40:52;102877.22;;;15.29;41.64
64200;BME280;50516;52.272;5.136;2023-05-18T12:43:18;102874.88;;;15.60;41.64
64200;BME280;50516;52.272;5.136;2023-05-18T12:45:44;102884.41;;;15.92;41.28
64200;BME280;50516;52.272;5.136;2023-05-18T12:48:10;102881.22;;;15.78;41.70
64200;BME280;50516;52.272;5.136;2023-05-18T12:50:45;102877.06;;;16.02;41.70
64200;BME280;50516;52.272;5.136;2023-05-18T12:53:10;102867.19;;;16.39;41.28
64200;BME280;50516;52.272;5.136;2023-05-18T12:55:35;102875.88;;;16.48;40.94
64200;BME280;50516;52.272;5.136;2023-05-18T12:58:15;102864.00;;;15.98;41.71
64200;BME280;50516;52.272;5.136;2023-05-18T13:00:45;102873.06;;;15.71;41.84
64200;BME280;50516;52.272;5.136;2023-05-18T13:03:16;102873.25;;;15.64;41.08
64200;BME280;50516;52.272;5.136;2023-05-18T13:05:43;102870.22;;;15.66;40.76
64200;BME280;50516;52.272;5.136;2023-05-18T13:08:18;102863.63;;;16.16;40.29
64200;BME280;50516;52.272;5.136;2023-05-18T13:10:45;102864.88;;;16.31;41.05
64200;BME280;50516;52.272;5.136;2023-05-18T13:13:14;102855.09;;;16.50;41.16